Terminal Aerodrome Forecast
Issued by NWS

Home | Current Version | Previous Version | Graphics & Text | Print | Product List | Glossary On
Versions: 1 2 3 4 5 6 7 8 9 10 11 12 13 14 15 16 17 18 19 20 21 22 23 24
000
FTUS43 KABR 031509 AAA
TAFPIR
TAF AMD
KPIR 031509Z 0315/0412 VRB04KT 3SM FU SCT040
      TEMPO 0316/0320 6SM FU BKN040
     FM032000 VRB04KT P6SM SKC=

USA.gov is the U.S. government's official web portal to all federal, state and local government web resources and services.